Time;durP1;ratioP1;P1;durP2;ratioP2;P2;SDS_P1;SDS_P2;PMS_P1;PMS_P2;Temp;Humidity;BMP_temperature;BMP_pressure;BME280_temperature;BME280_humidity;BME280_pressure;Samples;Min_cycle;Max_cycle;Signal;HPM_P1;HPM_P2
2023/01/15 00:02:25;;;;;;;5.17;4.13;;;;;;;4.72;100.00;96061.00;5039124;28;20371;-71
2023/01/15 00:04:53;;;;;;;3.17;2.97;;;;;;;4.74;100.00;96051.97;5037681;28;20210;-74
2023/01/15 00:07:20;;;;;;;2.80;2.60;;;;;;;4.74;100.00;96059.84;5027960;28;20227;-72
2023/01/15 00:09:49;;;;;;;2.10;2.00;;;;;;;4.75;100.00;96053.59;5042245;28;20242;-72
2023/01/15 00:12:17;;;;;;;2.23;2.10;;;;;;;4.80;100.00;96055.72;5040492;28;20326;-71
2023/01/15 00:14:46;;;;;;;2.77;2.33;;;;;;;4.75;100.00;96032.63;5023469;28;20211;-72
2023/01/15 00:17:14;;;;;;;2.40;2.30;;;;;;;4.77;100.00;96035.06;5026054;28;20778;-73
2023/01/15 00:19:41;;;;;;;2.40;2.30;;;;;;;4.74;100.00;96027.56;5041769;28;20230;-75
2023/01/15 00:22:09;;;;;;;2.60;2.30;;;;;;;4.79;100.00;96033.09;5030063;28;20785;-72
2023/01/15 00:27:42;;;;;;;3.03;2.80;;;;;;;4.82;100.00;96032.75;5047339;28;20222;-74
2023/01/15 00:30:14;;;;;;;2.43;2.33;;;;;;;4.81;100.00;96022.41;5045229;28;20777;-73
2023/01/15 00:32:43;;;;;;;2.53;2.43;;;;;;;4.87;100.00;96027.78;5005705;28;20307;-74
2023/01/15 00:35:12;;;;;;;2.80;2.60;;;;;;;4.78;100.00;96020.97;5042749;28;20207;-73
2023/01/15 00:37:40;;;;;;;2.60;2.40;;;;;;;4.89;100.00;96019.72;5030680;28;20777;-74
2023/01/15 00:40:09;;;;;;;2.67;2.57;;;;;;;4.91;100.00;96034.31;5051012;28;20909;-73
2023/01/15 00:42:36;;;;;;;2.70;2.50;;;;;;;4.88;100.00;96028.56;5047534;28;20710;-73
2023/01/15 00:45:08;;;;;;;2.50;2.30;;;;;;;4.85;100.00;96027.13;5045672;28;20346;-73
2023/01/15 00:47:38;;;;;;;2.53;2.43;;;;;;;4.88;100.00;96024.16;5006435;28;20223;-73
2023/01/15 00:50:07;;;;;;;2.10;2.00;;;;;;;4.86;100.00;96023.50;5045113;28;20432;-73
2023/01/15 00:52:35;;;;;;;2.63;2.30;;;;;;;4.86;100.00;96009.56;5044292;28;20813;-73
2023/01/15 00:55:03;;;;;;;2.30;2.03;;;;;;;4.87;100.00;96021.69;5033338;28;20210;-73
2023/01/15 00:57:30;;;;;;;2.50;2.30;;;;;;;4.89;100.00;96020.53;5047118;28;20987;-73
2023/01/15 00:59:58;;;;;;;2.47;2.37;;;;;;;4.93;100.00;96013.13;5043498;28;20238;-73
2023/01/15 01:02:26;;;;;;;4.03;2.80;;;;;;;4.89;100.00;96012.66;5007628;28;20219;-71
2023/01/15 01:04:55;;;;;;;2.90;2.47;;;;;;;4.91;100.00;96001.97;5000231;28;20789;-73
2023/01/15 01:07:22;;;;;;;2.67;2.47;;;;;;;4.89;100.00;96010.03;5045695;28;20702;-73
2023/01/15 01:09:50;;;;;;;2.40;2.30;;;;;;;4.88;100.00;95997.91;5032846;28;20437;-73
2023/01/15 01:12:20;;;;;;;3.03;2.60;;;;;;;4.88;100.00;96002.31;5027823;28;20207;-71
2023/01/15 01:14:47;;;;;;;2.60;2.50;;;;;;;4.85;100.00;95994.81;5032201;28;20203;-73
2023/01/15 01:17:15;;;;;;;3.37;2.37;;;;;;;4.90;100.00;95998.53;5044359;28;20203;-71
2023/01/15 01:19:42;;;;;;;2.10;2.00;;;;;;;4.91;100.00;95994.09;5047982;28;20227;-72
2023/01/15 01:22:11;;;;;;;2.43;2.23;;;;;;;4.86;100.00;95988.56;5002608;28;20210;-73
2023/01/15 01:24:39;;;;;;;2.30;2.20;;;;;;;5.02;100.00;95998.94;5044496;28;20412;-73
2023/01/15 01:27:06;;;;;;;2.23;2.07;;;;;;;5.06;100.00;95994.13;5047970;28;20211;-72
2023/01/15 01:29:34;;;;;;;2.47;2.17;;;;;;;5.01;100.00;95985.97;5032954;28;20491;-71
2023/01/15 01:32:01;;;;;;;2.57;2.37;;;;;;;4.96;100.00;95983.91;5044831;28;20590;-71
2023/01/15 01:34:29;;;;;;;2.20;2.10;;;;;;;4.97;100.00;95977.66;5041628;28;20395;-74
2023/01/15 01:36:58;;;;;;;2.67;2.47;;;;;;;4.97;100.00;95975.03;5003986;28;20218;-73
2023/01/15 01:39:27;;;;;;;2.40;2.23;;;;;;;4.96;100.00;95972.56;5038884;28;20694;-72
2023/01/15 01:41:54;;;;;;;2.10;2.00;;;;;;;4.84;100.00;95954.63;5046461;28;20209;-74
2023/01/15 01:44:55;;;;;;;2.97;2.60;;;;;;;4.88;100.00;95953.28;5028776;28;20203;-72
2023/01/15 01:47:24;;;;;;;2.07;1.90;;;;;;;4.85;100.00;95937.91;5037246;28;20199;-71
2023/01/15 01:49:54;;;;;;;2.43;2.13;;;;;;;4.84;100.00;95943.31;5042917;28;20223;-73
2023/01/15 01:52:25;;;;;;;2.37;2.27;;;;;;;4.78;100.00;95944.84;5004825;28;20286;-69
2023/01/15 01:54:55;;;;;;;2.20;2.10;;;;;;;4.75;100.00;95943.41;5039549;28;20285;-74
2023/01/15 01:57:23;;;;;;;2.53;2.10;;;;;;;4.75;100.00;95930.28;5038293;28;20203;-72
2023/01/15 01:59:51;;;;;;;2.23;2.13;;;;;;;4.73;100.00;95937.50;5039821;28;21258;-73
2023/01/15 02:02:20;;;;;;;2.00;1.83;;;;;;;4.70;100.00;95916.03;5028564;28;20207;-72
2023/01/15 02:04:48;;;;;;;3.37;2.10;;;;;;;4.70;100.00;95918.66;5042202;28;20538;-71
2023/01/15 02:07:16;;;;;;;2.03;1.80;;;;;;;4.75;100.00;95918.97;5039771;28;20204;-71
2023/01/15 02:09:44;;;;;;;2.50;1.90;;;;;;;4.74;100.00;95912.09;5004182;28;20235;-73
2023/01/15 02:12:16;;;;;;;2.27;1.87;;;;;;;4.75;100.00;95914.53;5045311;28;20582;-72
2023/01/15 02:14:49;;;;;;;2.17;2.07;;;;;;;4.74;100.00;95910.28;5041884;28;20210;-74
2023/01/15 02:17:22;;;;;;;2.17;2.07;;;;;;;4.69;100.00;95907.38;5012945;28;20215;-73
2023/01/15 02:19:54;;;;;;;1.90;1.80;;;;;;;4.73;100.00;95902.56;5045269;28;20223;-73
2023/01/15 02:22:30;;;;;;;1.97;1.90;;;;;;;4.62;100.00;95885.47;5040686;28;20329;-74
2023/01/15 02:25:03;;;;;;;1.53;1.43;;;;;;;4.67;100.00;95887.53;5005068;28;20221;-72
2023/01/15 02:27:33;;;;;;;1.97;1.87;;;;;;;4.71;100.00;95873.06;5047079;28;20210;-73
2023/01/15 02:30:04;;;;;;;4.23;2.00;;;;;;;4.75;100.00;95882.25;5045849;28;20241;-72
2023/01/15 02:32:35;;;;;;;2.60;2.40;;;;;;;4.71;100.00;95865.19;5029262;28;20211;-74
2023/01/15 02:35:07;;;;;;;1.90;1.80;;;;;;;4.67;100.00;95872.63;5041356;28;20204;-72
2023/01/15 02:37:38;;;;;;;2.00;1.90;;;;;;;4.64;100.00;95863.28;5041748;28;20229;-73
2023/01/15 02:40:07;;;;;;;1.83;1.73;;;;;;;4.67;100.00;95864.75;5007788;28;20512;-72
2023/01/15 02:42:36;;;;;;;1.93;1.83;;;;;;;4.64;100.00;95863.28;5044304;28;20787;-73
2023/01/15 02:45:06;;;;;;;2.00;1.90;;;;;;;4.67;100.00;95854.25;5045809;28;20217;-73
2023/01/15 02:47:35;;;;;;;1.90;1.80;;;;;;;4.68;100.00;95862.94;5030806;28;20517;-72
2023/01/15 02:50:05;;;;;;;1.83;1.73;;;;;;;4.55;100.00;95840.75;5039941;28;20236;-73
2023/01/15 02:52:37;;;;;;;1.70;1.60;;;;;;;4.59;100.00;95851.72;5042802;28;20209;-74
2023/01/15 02:55:08;;;;;;;2.30;2.13;;;;;;;4.59;100.00;95851.72;5006367;28;20203;-71
2023/01/15 02:57:37;;;;;;;2.10;1.93;;;;;;;4.59;100.00;95835.97;5042901;28;20213;-72
2023/01/15 03:00:09;;;;;;;2.00;1.80;;;;;;;4.59;100.00;95834.16;5038633;28;20249;-73
2023/01/15 03:02:40;;;;;;;2.67;1.87;;;;;;;4.56;100.00;95831.09;5029005;28;20203;-74
2023/01/15 03:05:09;;;;;;;2.80;2.33;;;;;;;4.56;100.00;95824.03;5040566;28;20601;-72
2023/01/15 03:07:42;;;;;;;2.17;2.07;;;;;;;4.57;100.00;95817.00;5041216;28;20195;-72
2023/01/15 03:10:11;;;;;;;1.83;1.73;;;;;;;4.59;100.00;95823.66;5038674;28;20226;-71
2023/01/15 03:18:11;;;;;;;1.83;1.73;;;;;;;4.65;100.00;95801.16;5042963;28;20603;-73
2023/01/15 03:20:43;;;;;;;1.77;1.70;;;;;;;4.69;100.00;95807.66;5036803;28;20223;-72
2023/01/15 03:23:13;;;;;;;1.87;1.87;;;;;;;4.71;100.00;95813.56;5041390;28;20503;-73
2023/01/15 03:25:45;;;;;;;1.77;1.67;;;;;;;4.69;100.00;95817.34;5043094;28;20530;-72
2023/01/15 03:28:14;;;;;;;1.40;1.40;;;;;;;4.70;100.00;95811.91;5007125;28;20635;-73
2023/01/15 03:30:42;;;;;;;2.03;1.90;;;;;;;4.79;100.00;95810.03;5035912;28;20447;-72
2023/01/15 03:33:10;;;;;;;2.10;2.00;;;;;;;4.80;100.00;95805.56;5043223;28;20807;-72
2023/01/15 03:35:47;;;;;;;1.97;1.87;;;;;;;4.86;100.00;95795.19;5040734;28;20393;-72
2023/01/15 03:38:18;;;;;;;1.83;1.73;;;;;;;4.81;100.00;95797.53;5036623;28;20666;-72
2023/01/15 03:40:50;;;;;;;1.60;1.50;;;;;;;4.83;100.00;95792.91;5042463;28;20217;-72
2023/01/15 03:46:14;;;;;;;1.80;1.70;;;;;;;4.88;100.00;95777.44;5040460;28;20218;-73
2023/01/15 03:48:45;;;;;;;2.03;1.97;;;;;;;4.85;100.00;95767.31;5042752;28;20572;-72
2023/01/15 03:51:17;;;;;;;2.10;1.80;;;;;;;4.99;100.00;95764.84;5043234;28;20237;-73
2023/01/15 03:53:48;;;;;;;1.40;1.30;;;;;;;5.03;100.00;95771.34;5037827;28;20780;-73
2023/01/15 03:56:18;;;;;;;1.40;1.30;;;;;;;4.97;100.00;95764.22;5039869;28;20321;-73
2023/01/15 03:58:49;;;;;;;1.63;1.53;;;;;;;4.96;100.00;95762.56;5007982;28;20571;-70
2023/01/15 04:01:20;;;;;;;1.97;1.87;;;;;;;4.90;100.00;95762.31;5024693;28;21004;-73
2023/01/15 04:03:48;;;;;;;1.60;1.60;;;;;;;4.85;100.00;95764.69;5039097;28;20232;-73
2023/01/15 04:06:17;;;;;;;2.13;1.93;;;;;;;4.82;100.00;95765.06;5041405;28;20444;-72
2023/01/15 04:08:45;;;;;;;1.60;1.60;;;;;;;4.80;100.00;95763.59;5046440;28;20206;-74
2023/01/15 04:11:13;;;;;;;1.93;1.80;;;;;;;4.78;100.00;95754.09;5041660;28;20222;-73
2023/01/15 04:13:41;;;;;;;2.03;1.93;;;;;;;4.76;100.00;95748.22;5048960;28;20749;-74
2023/01/15 04:16:09;;;;;;;3.33;1.97;;;;;;;4.79;100.00;95760.16;4995476;28;20214;-73
2023/01/15 04:18:37;;;;;;;2.33;2.10;;;;;;;4.86;100.00;95768.94;5041371;28;20217;-71
2023/01/15 04:21:05;;;;;;;2.17;1.77;;;;;;;4.82;100.00;95759.81;5030456;28;20224;-73
2023/01/15 04:23:33;;;;;;;3.27;1.90;;;;;;;4.88;100.00;95766.94;5044931;28;20211;-73
2023/01/15 04:26:00;;;;;;;2.43;1.87;;;;;;;4.85;100.00;95751.56;5035726;28;20211;-70
2023/01/15 04:28:28;;;;;;;1.77;1.67;;;;;;;4.96;100.00;95763.41;5037948;28;20780;-72
2023/01/15 04:30:57;;;;;;;1.70;1.60;;;;;;;4.90;100.00;95762.31;4998971;28;20234;-72
2023/01/15 04:33:26;;;;;;;2.30;2.10;;;;;;;4.87;100.00;95757.44;5041486;28;20248;-74
2023/01/15 04:35:53;;;;;;;1.80;1.70;;;;;;;4.78;100.00;95754.09;5051093;28;20208;-71
2023/01/15 04:38:21;;;;;;;2.50;1.70;;;;;;;4.80;100.00;95738.19;5049395;28;20452;-74
2023/01/15 04:46:21;;;;;;;2.60;2.33;;;;;;;4.87;100.00;95744.31;5001226;28;21388;-73
2023/01/15 04:48:50;;;;;;;2.20;2.00;;;;;;;4.75;100.00;95741.34;5041987;28;20199;-73
2023/01/15 04:51:18;;;;;;;3.47;1.90;;;;;;;4.72;100.00;95733.00;5039054;28;20443;-71
2023/01/15 04:53:45;;;;;;;2.03;1.90;;;;;;;4.67;100.00;95732.75;5044055;28;20298;-73
2023/01/15 04:56:13;;;;;;;1.43;1.43;;;;;;;4.64;100.00;95728.69;5040707;28;20286;-70
2023/01/15 04:58:40;;;;;;;1.97;1.87;;;;;;;4.61;100.00;95736.94;5045814;28;20513;-73
2023/01/15 05:01:11;;;;;;;2.87;2.10;;;;;;;4.65;100.00;95722.44;4999810;28;20239;-70
2023/01/15 05:03:39;;;;;;;1.83;1.73;;;;;;;4.69;100.00;95728.97;5034699;28;20752;-72
2023/01/15 05:06:09;;;;;;;1.90;1.80;;;;;;;4.68;100.00;95722.09;5037016;28;20199;-72
2023/01/15 05:08:37;;;;;;;2.53;2.37;;;;;;;4.67;100.00;95722.25;5046313;28;20195;-73
2023/01/15 05:11:06;;;;;;;2.20;2.00;;;;;;;4.62;100.00;95721.00;5043390;28;20494;-72
2023/01/15 05:13:34;;;;;;;2.23;2.13;;;;;;;4.61;100.00;95721.97;5045422;28;20202;-73
2023/01/15 05:16:13;;;;;;;2.03;1.93;;;;;;;4.55;100.00;95727.16;5016909;28;20679;-71
2023/01/15 05:18:41;;;;;;;2.03;1.93;;;;;;;4.51;100.00;95707.50;5041328;28;20213;-73
2023/01/15 05:21:15;;;;;;;2.00;1.87;;;;;;;4.55;100.00;95714.84;4990342;28;20767;-71
2023/01/15 05:23:43;;;;;;;2.30;2.20;;;;;;;4.48;100.00;95709.50;5031123;28;20199;-72
2023/01/15 05:26:10;;;;;;;2.70;2.50;;;;;;;4.51;100.00;95723.25;5048096;28;20218;-71
2023/01/15 05:28:38;;;;;;;2.20;2.10;;;;;;;4.41;100.00;95703.38;5045066;28;20203;-71
2023/01/15 05:31:08;;;;;;;2.07;1.97;;;;;;;4.41;100.00;95708.63;5045081;28;20235;-72
2023/01/15 05:33:36;;;;;;;2.40;2.10;;;;;;;4.43;100.00;95703.19;5043670;28;20204;-72
2023/01/15 05:36:06;;;;;;;2.10;2.00;;;;;;;4.44;100.00;95694.34;5004200;28;20231;-72
2023/01/15 05:38:35;;;;;;;2.20;2.00;;;;;;;4.34;100.00;95694.59;5041936;28;20203;-73
2023/01/15 05:41:47;;;;;;;1.93;1.83;;;;;;;4.41;100.00;95689.47;5043421;28;20460;-73
2023/01/15 05:43:52;;;;;;;2.70;2.00;;;;;;;4.47;100.00;95696.59;5041113;28;20393;-73
2023/01/15 05:46:19;;;;;;;2.20;2.10;;;;;;;4.42;100.00;95683.22;5042066;28;21753;-73
2023/01/15 05:48:47;;;;;;;2.50;2.40;;;;;;;4.41;100.00;95676.34;5039540;28;20302;-73
2023/01/15 05:51:14;;;;;;;2.20;2.10;;;;;;;4.38;100.00;95674.09;5000016;28;20227;-73
2023/01/15 05:53:44;;;;;;;1.90;1.80;;;;;;;4.41;100.00;95678.97;5031067;28;20206;-74
2023/01/15 05:56:11;;;;;;;2.93;2.63;;;;;;;4.43;100.00;95669.09;5046336;28;20213;-73
2023/01/15 05:58:39;;;;;;;2.20;2.10;;;;;;;4.36;100.00;95653.28;5043472;28;20203;-73
2023/01/15 06:01:07;;;;;;;2.00;1.90;;;;;;;4.42;100.00;95670.09;5043054;28;20303;-71
2023/01/15 06:03:35;;;;;;;2.20;2.10;;;;;;;4.41;100.00;95666.66;5023691;28;21181;-74
2023/01/15 06:06:03;;;;;;;3.27;3.07;;;;;;;4.46;100.00;95658.25;5006238;28;20753;-73
2023/01/15 06:08:31;;;;;;;2.40;2.00;;;;;;;4.45;100.00;95664.50;5022502;28;20791;-73
2023/01/15 06:11:00;;;;;;;2.20;2.10;;;;;;;4.58;100.00;95666.47;5046155;28;20257;-73
2023/01/15 06:13:27;;;;;;;2.03;1.93;;;;;;;4.56;100.00;95664.00;5042623;28;20214;-71
2023/01/15 06:15:55;;;;;;;2.47;2.37;;;;;;;4.56;100.00;95664.00;5040571;28;20199;-74
2023/01/15 06:18:23;;;;;;;1.80;1.70;;;;;;;4.59;100.00;95676.75;5019824;28;20420;-74
2023/01/15 06:20:51;;;;;;;2.00;1.90;;;;;;;4.54;100.00;95671.25;4963975;28;21685;-72
2023/01/15 06:23:18;;;;;;;2.63;2.30;;;;;;;4.56;100.00;95682.38;5041581;28;20222;-72
2023/01/15 06:25:46;;;;;;;1.80;1.70;;;;;;;4.53;100.00;95671.44;5021241;28;20402;-69
2023/01/15 06:28:19;;;;;;;1.97;1.87;;;;;;;4.52;100.00;95668.00;5038278;28;20199;-73
2023/01/15 06:30:46;;;;;;;2.17;2.07;;;;;;;4.57;100.00;95662.22;5044392;28;20257;-74
2023/01/15 06:33:14;;;;;;;3.43;2.23;;;;;;;4.54;100.00;95663.38;5043203;28;20658;-71
2023/01/15 06:35:41;;;;;;;1.90;1.80;;;;;;;4.63;100.00;95657.03;5043099;28;20237;-72
2023/01/15 06:38:09;;;;;;;2.23;2.03;;;;;;;4.60;100.00;95649.53;5001033;28;20720;-69
2023/01/15 06:40:37;;;;;;;1.83;1.70;;;;;;;4.61;100.00;95655.59;5032318;28;20222;-71
2023/01/15 06:48:36;;;;;;;1.87;1.77;;;;;;;4.83;100.00;95643.34;5043782;28;20210;-72
2023/01/15 06:51:03;;;;;;;1.80;1.70;;;;;;;4.72;100.00;95620.19;5038295;28;21316;-72
2023/01/15 06:53:31;;;;;;;1.70;1.60;;;;;;;4.84;100.00;95638.88;4978287;28;20212;-72
2023/01/15 06:55:58;;;;;;;2.00;1.83;;;;;;;4.78;100.00;95640.47;5022411;28;20206;-70
2023/01/15 06:58:26;;;;;;;1.80;1.70;;;;;;;4.80;100.00;95627.13;5019348;28;20207;-71
2023/01/15 07:00:55;;;;;;;1.53;1.50;;;;;;;4.88;100.00;95632.25;5033885;28;20215;-68
2023/01/15 07:03:23;;;;;;;1.90;1.80;;;;;;;4.89;100.00;95631.25;5035531;28;20442;-71
2023/01/15 07:05:51;;;;;;;2.13;2.03;;;;;;;4.86;100.00;95631.63;5036296;28;20425;-69
2023/01/15 07:08:18;;;;;;;2.20;1.80;;;;;;;4.89;100.00;95631.25;4996492;28;20731;-69
2023/01/15 07:10:46;;;;;;;2.90;2.70;;;;;;;4.82;100.00;95620.72;5039556;28;20807;-71
2023/01/15 07:13:13;;;;;;;2.50;2.37;;;;;;;4.82;100.00;95620.72;5016680;28;20222;-73
2023/01/15 07:15:41;;;;;;;1.70;1.70;;;;;;;4.88;100.00;95617.34;5037774;28;20519;-71
2023/01/15 07:18:10;;;;;;;2.00;1.90;;;;;;;5.06;100.00;95622.16;5042332;28;20200;-72
2023/01/15 07:20:38;;;;;;;2.07;1.97;;;;;;;5.15;100.00;95614.16;5042589;28;20219;-71
2023/01/15 07:23:05;;;;;;;1.87;1.77;;;;;;;5.27;100.00;95614.47;5038061;28;20231;-72
2023/01/15 07:25:33;;;;;;;1.60;1.60;;;;;;;5.34;100.00;95624.03;4999858;28;20220;-70
2023/01/15 07:28:01;;;;;;;3.23;2.23;;;;;;;5.38;100.00;95619.19;5032353;28;20605;-71
2023/01/15 07:30:28;;;;;;;2.23;2.13;;;;;;;5.38;100.00;95613.94;5018406;28;20250;-73
2023/01/15 07:32:56;;;;;;;2.10;1.90;;;;;;;5.36;100.00;95616.78;5043625;28;20671;-70
2023/01/15 07:35:25;;;;;;;1.60;1.60;;;;;;;5.36;100.00;95615.94;5045281;28;20198;-71
2023/01/15 07:37:52;;;;;;;2.37;2.10;;;;;;;5.29;100.00;95620.34;5050906;28;20549;-71
2023/01/15 07:40:20;;;;;;;2.17;2.07;;;;;;;5.29;100.00;95617.72;5049400;28;20432;-70
2023/01/15 07:51:17;;;;;;;2.63;2.43;;;;;;;5.34;100.00;95610.91;5035862;28;20447;-68
2023/01/15 07:53:45;;;;;;;2.20;2.00;;;;;;;5.33;100.00;95608.44;5042674;28;20207;-70
2023/01/15 07:56:13;;;;;;;2.63;2.50;;;;;;;5.39;100.00;95601.63;5046688;28;20563;-69
2023/01/15 07:58:40;;;;;;;2.93;2.73;;;;;;;5.46;100.00;95607.75;5045640;28;20715;-72
2023/01/15 08:01:08;;;;;;;2.10;2.00;;;;;;;5.55;100.00;95592.66;5000713;28;20233;-71
2023/01/15 08:03:35;;;;;;;2.57;2.37;;;;;;;5.54;100.00;95606.81;5052702;28;20275;-71
2023/01/15 08:06:03;;;;;;;1.87;1.77;;;;;;;5.53;100.00;95602.56;5044465;28;20214;-70
2023/01/15 08:08:32;;;;;;;2.40;2.20;;;;;;;5.45;100.00;95599.03;5044719;28;20203;-69
2023/01/15 08:16:35;;;;;;;3.20;2.97;;;;;;;5.73;100.00;95610.56;5007733;28;20211;-69
2023/01/15 08:19:03;;;;;;;2.67;2.47;;;;;;;5.71;100.00;95617.84;5045398;28;20239;-74
2023/01/15 08:21:31;;;;;;;2.33;2.00;;;;;;;5.71;100.00;95625.72;5044090;28;20450;-71
2023/01/15 08:23:59;;;;;;;2.40;2.30;;;;;;;5.75;100.00;95640.91;5050205;28;20302;-73
2023/01/15 08:26:28;;;;;;;1.83;1.73;;;;;;;5.71;100.00;95626.50;5024430;28;20285;-72
2023/01/15 08:28:56;;;;;;;1.60;1.60;;;;;;;5.78;100.00;95631.81;5048040;28;20302;-72
2023/01/15 08:31:24;;;;;;;2.20;2.10;;;;;;;5.75;100.00;95627.75;5006563;28;20420;-71
2023/01/15 08:33:51;;;;;;;2.33;2.07;;;;;;;5.73;100.00;95629.75;5044988;28;20207;-70
2023/01/15 08:36:19;;;;;;;2.00;1.90;;;;;;;5.77;100.00;95628.38;5046325;28;20321;-71
2023/01/15 08:38:48;;;;;;;2.07;1.97;;;;;;;5.77;100.00;95636.25;5051798;28;20203;-72
2023/01/15 08:41:17;;;;;;;4.63;3.93;;;;;;;5.82;100.00;95634.88;5033099;28;20361;-73
2023/01/15 08:43:45;;;;;;;3.00;2.80;;;;;;;5.84;100.00;95633.69;5048241;28;20198;-72
2023/01/15 08:46:13;;;;;;;2.80;2.60;;;;;;;5.92;100.00;95643.25;5007112;28;20769;-70
2023/01/15 08:48:40;;;;;;;3.03;2.83;;;;;;;6.05;100.00;95635.47;5048839;28;20206;-74
2023/01/15 08:51:10;;;;;;;2.47;2.30;;;;;;;6.07;100.00;95635.28;5034858;28;20708;-74
2023/01/15 08:53:38;;;;;;;2.50;2.40;;;;;;;5.98;100.00;95631.94;5048034;28;20199;-75
2023/01/15 08:56:12;;;;;;;3.27;2.97;;;;;;;6.02;100.00;95646.38;5034115;28;20218;-74
2023/01/15 08:58:40;;;;;;;2.73;2.60;;;;;;;6.03;100.00;95641.91;5031373;28;20222;-74
2023/01/15 09:01:10;;;;;;;2.70;2.60;;;;;;;6.06;100.00;95649.41;4995749;28;20872;-74
2023/01/15 09:03:38;;;;;;;2.80;2.60;;;;;;;6.11;100.00;95667.25;5047543;28;20211;-73
2023/01/15 09:06:06;;;;;;;1.80;1.70;;;;;;;6.10;100.00;95669.06;5023223;28;20207;-76
2023/01/15 09:08:34;;;;;;;2.40;2.27;;;;;;;6.08;100.00;95684.25;5044819;28;20207;-74
2023/01/15 09:11:02;;;;;;;2.23;2.10;;;;;;;6.04;100.00;95710.09;5034408;28;20233;-74
2023/01/15 09:13:30;;;;;;;2.77;2.57;;;;;;;5.91;100.00;95731.00;5049124;28;20241;-73
2023/01/15 09:16:00;;;;;;;3.00;2.80;;;;;;;5.80;100.00;95733.13;5046033;28;20290;-75
2023/01/15 09:18:28;;;;;;;3.50;3.20;;;;;;;5.70;100.00;95735.25;5007662;28;20237;-73
2023/01/15 09:20:56;;;;;;;1.70;1.60;;;;;;;5.74;100.00;95728.63;5044740;28;20947;-74
2023/01/15 09:23:24;;;;;;;1.87;1.40;;;;;;;5.80;100.00;95742.84;5043210;28;20199;-72
2023/01/15 09:25:52;;;;;;;6.03;5.53;;;;;;;5.72;100.00;95732.47;5045913;28;20214;-74
2023/01/15 09:28:20;;;;;;;1.47;1.47;;;;;;;5.81;100.00;95760.22;5045386;28;20281;-74
2023/01/15 09:30:47;;;;;;;1.10;1.10;;;;;;;5.82;100.00;95748.72;5046607;28;20602;-73
2023/01/15 09:33:16;;;;;;;1.63;0.83;;;;;;;5.90;100.00;95766.19;4986272;28;20556;-73
2023/01/15 09:35:44;;;;;;;1.10;1.10;;;;;;;5.93;100.00;95765.81;5044101;28;20203;-75
2023/01/15 09:38:12;;;;;;;0.93;0.93;;;;;;;5.96;100.00;95768.03;4980482;28;20368;-72
2023/01/15 09:40:47;;;;;;;0.70;0.70;;;;;;;6.02;100.00;95777.84;5041220;28;20222;-73
2023/01/15 09:43:26;;;;;;;1.10;1.10;;;;;;;6.00;100.00;95777.19;5035567;28;20198;-74
2023/01/15 09:45:57;;;;;;;0.70;0.70;;;;;;;5.96;100.00;95777.72;5045432;28;20826;-74
2023/01/15 09:48:36;;;;;;;0.63;0.63;;;;;;;6.04;100.00;95770.56;5041724;28;20746;-70
2023/01/15 09:51:15;;;;;;;0.80;0.80;;;;;;;6.32;100.00;95772.41;5040251;28;20257;-70
2023/01/15 09:54:00;;;;;;;8.27;7.57;;;;;;;6.11;100.00;95781.16;4993145;28;20638;-74
2023/01/15 09:56:31;;;;;;;1.80;1.70;;;;;;;6.06;100.00;95786.97;5032983;28;20596;-70
2023/01/15 09:59:01;;;;;;;0.70;0.70;;;;;;;6.03;100.00;95794.41;5010205;28;20306;-72
2023/01/15 10:01:31;;;;;;;1.20;1.20;;;;;;;6.05;100.00;95797.66;5040783;28;20225;-71
2023/01/15 10:04:03;;;;;;;0.63;0.63;;;;;;;6.01;100.00;95809.56;5041397;28;20276;-72
2023/01/15 10:06:34;;;;;;;0.73;0.73;;;;;;;5.97;100.00;95800.41;5042528;28;20215;-71
2023/01/15 10:09:06;;;;;;;0.60;0.60;;;;;;;5.96;100.00;95799.59;4996668;28;20213;-73
2023/01/15 10:14:37;;;;;;;0.70;0.70;;;;;;;5.80;100.00;95825.13;5010292;28;20235;-71
2023/01/15 10:17:25;;;;;;;1.30;1.30;;;;;;;5.62;100.00;95830.78;5041567;28;20748;-72
2023/01/15 10:19:54;;;;;;;1.00;1.00;;;;;;;5.36;100.00;95831.31;5041881;28;20241;-71
2023/01/15 10:22:36;;;;;;;1.90;1.70;;;;;;;5.28;100.00;95834.84;5040414;28;20585;-71
2023/01/15 10:25:09;;;;;;;2.43;2.33;;;;;;;5.27;100.00;95843.72;5001222;28;20218;-72
2023/01/15 10:27:39;;;;;;;2.53;2.43;;;;;;;5.30;100.00;95861.78;5027961;28;20199;-71
2023/01/15 10:30:11;;;;;;;3.40;3.13;;;;;;;5.37;100.00;95869.72;5026393;28;20420;-72
2023/01/15 10:32:45;;;;;;;2.83;2.63;;;;;;;5.43;100.00;95868.97;5045479;28;20617;-71
2023/01/15 10:35:39;;;;;;;2.40;2.23;;;;;;;5.56;100.00;95883.28;5043405;28;20208;-71
2023/01/15 10:38:14;;;;;;;3.20;2.60;;;;;;;5.63;100.00;95877.09;5038973;28;20729;-74
2023/01/15 10:41:06;;;;;;;2.50;2.30;;;;;;;5.68;100.00;95879.19;4997218;28;20222;-72
2023/01/15 10:43:46;;;;;;;3.90;3.40;;;;;;;5.73;100.00;95886.53;5023754;28;20194;-71
2023/01/15 10:46:16;;;;;;;1.77;1.40;;;;;;;5.59;100.00;95872.41;5028605;28;20416;-71
2023/01/15 10:48:45;;;;;;;2.43;2.33;;;;;;;5.63;100.00;95877.09;5042198;28;20289;-72
2023/01/15 10:51:17;;;;;;;2.10;1.97;;;;;;;5.55;100.00;95885.09;5041298;28;22049;-70
2023/01/15 10:53:49;;;;;;;2.10;2.00;;;;;;;5.39;100.00;95882.69;5038391;28;20815;-73
2023/01/15 10:56:24;;;;;;;1.53;1.53;;;;;;;5.33;100.00;95884.22;4999984;28;20797;-70
2023/01/15 10:58:55;;;;;;;1.47;1.37;;;;;;;5.25;100.00;95907.97;5025852;28;20511;-72
2023/01/15 11:01:25;;;;;;;1.37;1.30;;;;;;;5.21;100.00;95916.19;5025434;28;20227;-71
2023/01/15 11:03:54;;;;;;;1.97;1.87;;;;;;;5.20;100.00;95913.75;5042414;28;20199;-72
2023/01/15 11:06:24;;;;;;;1.47;1.37;;;;;;;5.13;100.00;95923.34;5040179;28;20449;-73
2023/01/15 11:08:53;;;;;;;2.27;2.10;;;;;;;5.12;100.00;95909.41;5038041;28;20293;-72
2023/01/15 11:20:04;;;;;;;0.70;0.70;;;;;;;4.95;100.00;95931.56;5042639;28;20249;-73
2023/01/15 11:22:38;;;;;;;0.80;0.80;;;;;;;4.97;100.00;95937.44;5038246;28;20708;-71
2023/01/15 11:25:09;;;;;;;1.00;1.00;;;;;;;4.96;100.00;95930.56;5043982;28;20211;-72
2023/01/15 11:27:37;;;;;;;0.60;0.60;;;;;;;5.02;100.00;95924.59;5002331;28;20222;-71
2023/01/15 11:30:07;;;;;;;0.70;0.70;;;;;;;5.03;100.00;95915.72;5025382;28;20249;-73
2023/01/15 11:32:36;;;;;;;0.70;0.70;;;;;;;4.97;100.00;95921.69;5026864;28;20222;-71
2023/01/15 11:35:15;;;;;;;0.70;0.70;;;;;;;4.88;100.00;95934.91;5044701;28;20207;-71
2023/01/15 11:37:44;;;;;;;0.73;0.73;;;;;;;4.77;100.00;95935.34;5040982;28;20267;-73
2023/01/15 11:40:18;;;;;;;0.70;0.70;;;;;;;4.74;100.00;95933.88;5042210;28;20524;-72
2023/01/15 11:51:08;;;;;;;0.97;0.67;;;;;;;4.81;100.00;95936.63;5035489;28;20370;-71
2023/01/15 11:53:42;;;;;;;1.63;1.20;;;;;;;4.89;100.00;95947.03;5039626;28;20825;-73
2023/01/15 11:56:13;;;;;;;0.80;0.80;;;;;;;4.80;100.00;95934.16;5041975;28;20211;-72
2023/01/15 11:58:44;;;;;;;0.50;0.50;;;;;;;4.61;100.00;95917.94;5046109;28;20203;-74
2023/01/15 12:01:14;;;;;;;0.70;0.70;;;;;;;4.58;100.00;95936.66;5002288;28;20222;-71
2023/01/15 12:03:42;;;;;;;0.40;0.40;;;;;;;4.49;100.00;95954.28;5046058;28;20204;-72
2023/01/15 12:06:12;;;;;;;0.77;0.77;;;;;;;4.44;100.00;95946.13;5033074;28;20207;-71
2023/01/15 12:08:50;;;;;;;0.80;0.80;;;;;;;4.45;100.00;95940.69;5044107;28;20325;-72
2023/01/15 12:11:26;;;;;;;0.83;0.83;;;;;;;4.43;100.00;95931.38;5040496;28;20820;-71
2023/01/15 12:14:04;;;;;;;0.73;0.73;;;;;;;4.44;100.00;95935.63;5045840;28;20227;-73
2023/01/15 12:16:39;;;;;;;0.80;0.80;;;;;;;4.39;100.00;95940.59;4997247;28;20387;-74
2023/01/15 12:19:10;;;;;;;0.63;0.63;;;;;;;4.37;100.00;95937.31;5041947;28;20407;-72
2023/01/15 12:21:48;;;;;;;0.80;0.80;;;;;;;4.43;100.00;95963.66;5044712;28;20584;-74
2023/01/15 12:24:39;;;;;;;0.90;0.90;;;;;;;4.47;100.00;95956.25;5022230;28;20690;-71
2023/01/15 12:27:19;;;;;;;1.00;1.00;;;;;;;4.39;100.00;95967.63;5034089;28;20208;-71
2023/01/15 12:29:52;;;;;;;0.70;0.70;;;;;;;4.44;100.00;95993.34;5045542;28;20242;-71
2023/01/15 12:32:24;;;;;;;0.60;0.60;;;;;;;4.44;100.00;96003.81;4989916;28;20207;-72
2023/01/15 12:34:55;;;;;;;0.70;0.70;;;;;;;4.43;100.00;95989.06;5046002;28;20242;-72
2023/01/15 12:37:25;;;;;;;0.70;0.70;;;;;;;4.52;100.00;96003.75;5038915;28;20310;-71
2023/01/15 12:39:58;;;;;;;0.87;0.87;;;;;;;4.59;100.00;95999.44;5031800;28;20230;-73
2023/01/15 12:45:16;;;;;;;0.80;0.80;;;;;;;4.54;100.00;95985.22;5037718;28;20210;-72
2023/01/15 12:47:48;;;;;;;0.63;0.63;;;;;;;4.60;100.00;95977.47;5006523;28;20207;-71